Time;durP1;ratioP1;P1;durP2;ratioP2;P2;SDS_P1;SDS_P2;PMS_P1;PMS_P2;Temp;Humidity;BMP_temperature;BMP_pressure;BME280_temperature;BME280_humidity;BME280_pressure;Samples;Min_cycle;Max_cycle;Signal;HPM_P1;HPM_P2
2023/08/23 00:01:32;;;;;;;8.48;6.85;;;;;;;16.58;100.00;98890.66;4171500;28;20437;-74
2023/08/23 00:03:32;;;;;;;8.75;6.88;;;;;;;16.60;100.00;98895.84;4171489;28;20076;-74
2023/08/23 00:05:32;;;;;;;13.02;7.13;;;;;;;16.57;100.00;98889.88;4172004;28;20435;-74
2023/08/23 00:07:33;;;;;;;12.55;6.93;;;;;;;16.57;100.00;98889.88;4172003;28;20623;-74
2023/08/23 00:09:33;;;;;;;11.35;6.65;;;;;;;16.56;100.00;98885.50;4171682;28;20367;-74
2023/08/23 00:11:33;;;;;;;8.15;6.47;;;;;;;16.62;100.00;98883.03;4171459;28;20045;-74
2023/08/23 00:13:34;;;;;;;10.48;7.57;;;;;;;16.59;100.00;98883.88;4169653;28;20415;-74
2023/08/23 00:15:41;;;;;;;9.20;7.05;;;;;;;16.54;100.00;98875.91;4171531;28;20044;-74
2023/08/23 00:17:41;;;;;;;9.77;7.38;;;;;;;16.46;100.00;98886.34;4171545;28;20033;-74
2023/08/23 00:19:41;;;;;;;9.63;7.95;;;;;;;16.45;100.00;98881.16;4171989;28;20142;-73
2023/08/23 00:21:42;;;;;;;10.75;9.50;;;;;;;16.38;100.00;98879.19;4171167;28;20136;-73
2023/08/23 00:23:43;;;;;;;10.57;7.80;;;;;;;16.39;100.00;98882.81;4170611;28;20141;-73
2023/08/23 00:25:43;;;;;;;11.43;7.35;;;;;;;16.35;100.00;98885.59;4173593;28;20106;-74
2023/08/23 00:27:43;;;;;;;10.20;7.38;;;;;;;16.33;100.00;98893.59;4174633;28;20408;-74
2023/08/23 00:29:44;;;;;;;8.70;6.85;;;;;;;16.28;100.00;98892.00;4174492;28;20041;-73
2023/08/23 00:31:44;;;;;;;13.05;6.93;;;;;;;16.25;100.00;98890.03;4161299;28;20059;-74
2023/08/23 00:33:45;;;;;;;7.82;7.03;;;;;;;16.22;100.00;98892.88;4173287;28;20087;-74
2023/08/23 00:35:45;;;;;;;10.90;6.43;;;;;;;16.18;100.00;98887.28;4174414;28;20792;-74
2023/08/23 00:37:45;;;;;;;10.57;7.50;;;;;;;16.13;100.00;98893.28;4174227;28;20274;-74
2023/08/23 00:39:46;;;;;;;10.50;7.93;;;;;;;16.04;100.00;98897.69;4174576;28;20187;-74
2023/08/23 00:41:46;;;;;;;9.57;6.63;;;;;;;16.01;100.00;98893.72;4174304;28;20462;-74
2023/08/23 00:43:46;;;;;;;12.05;7.85;;;;;;;15.95;100.00;98896.13;4173851;28;20069;-74
2023/08/23 00:45:47;;;;;;;11.63;7.50;;;;;;;15.85;100.00;98887.81;4174967;28;20037;-74
2023/08/23 00:47:49;;;;;;;10.45;7.10;;;;;;;15.88;100.00;98887.00;4173978;28;20055;-74
2023/08/23 00:49:49;;;;;;;13.27;6.93;;;;;;;15.84;100.00;98884.22;4174688;28;20422;-73
2023/08/23 00:51:51;;;;;;;10.15;7.05;;;;;;;15.89;100.00;98885.81;4174132;28;21327;-74
2023/08/23 00:53:51;;;;;;;10.40;6.82;;;;;;;15.93;100.00;98886.59;4173461;28;20037;-74
2023/08/23 00:55:51;;;;;;;11.13;6.90;;;;;;;15.98;100.00;98888.97;4174312;28;20171;-74
2023/08/23 00:57:52;;;;;;;7.43;6.35;;;;;;;15.97;100.00;98888.19;4173760;28;20037;-74
2023/08/23 00:59:53;;;;;;;10.45;6.45;;;;;;;15.97;100.00;98892.94;4174443;28;20815;-73
2023/08/23 01:01:53;;;;;;;8.70;6.78;;;;;;;15.90;100.00;98891.00;4174025;28;20507;-73
2023/08/23 01:03:56;;;;;;;7.88;7.00;;;;;;;15.88;100.00;98887.78;4173414;28;20045;-73
2023/08/23 01:06:45;;;;;;;7.90;7.10;;;;;;;15.86;100.00;98889.41;4174083;28;20438;-73
2023/08/23 01:09:09;;;;;;;9.93;6.32;;;;;;;15.83;100.00;98893.00;4172942;28;20504;-74
2023/08/23 01:11:28;;;;;;;7.55;6.10;;;;;;;15.82;100.00;98888.63;4173513;28;20084;-74
2023/08/23 01:13:40;;;;;;;10.48;6.97;;;;;;;15.80;100.00;98889.00;4203872;28;20047;-74
2023/08/23 01:15:42;;;;;;;8.65;7.07;;;;;;;15.79;100.00;98881.84;4172332;28;20128;-74
2023/08/23 01:17:43;;;;;;;9.27;6.55;;;;;;;15.78;100.00;98897.00;4205033;28;20048;-74
2023/08/23 01:19:44;;;;;;;8.45;7.03;;;;;;;15.77;100.00;98894.59;4173559;28;20585;-74
2023/08/23 01:21:47;;;;;;;13.13;7.20;;;;;;;15.74;100.00;98885.06;4174339;28;20049;-74
2023/08/23 01:23:48;;;;;;;10.35;6.90;;;;;;;15.72;100.00;98881.84;4172630;28;20067;-73
2023/08/23 01:25:50;;;;;;;8.70;6.32;;;;;;;15.72;100.00;98879.88;4173796;28;20095;-73
2023/08/23 01:27:51;;;;;;;9.90;6.32;;;;;;;15.76;100.00;98876.28;4172985;28;20041;-74
2023/08/23 01:29:51;;;;;;;8.90;6.85;;;;;;;15.75;100.00;98880.28;4173898;28;20413;-74
2023/08/23 01:31:56;;;;;;;11.45;6.72;;;;;;;15.70;100.00;98885.06;4173641;28;20053;-74
2023/08/23 01:34:09;;;;;;;11.45;6.43;;;;;;;15.69;100.00;98889.03;4171506;28;20045;-74
2023/08/23 01:36:28;;;;;;;10.40;6.82;;;;;;;15.61;100.00;98892.25;4172351;28;20532;-74
2023/08/23 01:38:30;;;;;;;11.02;6.50;;;;;;;15.55;100.00;98897.41;4172452;28;20118;-73
2023/08/23 01:40:31;;;;;;;7.77;6.97;;;;;;;15.51;100.00;98901.41;4173581;28;20485;-74
2023/08/23 01:42:31;;;;;;;8.20;6.05;;;;;;;15.43;100.00;98883.88;4161950;28;20104;-73
2023/08/23 01:44:32;;;;;;;7.00;6.30;;;;;;;15.40;100.00;98882.72;4172826;28;20033;-74
2023/08/23 01:46:34;;;;;;;10.77;7.15;;;;;;;15.35;100.00;98877.53;4173234;28;20029;-73
2023/08/23 01:48:34;;;;;;;9.90;7.38;;;;;;;15.34;100.00;98878.72;4173757;28;20060;-74
2023/08/23 01:50:34;;;;;;;8.85;6.68;;;;;;;15.39;100.00;98874.72;4172919;28;20305;-74
2023/08/23 01:52:36;;;;;;;10.35;6.65;;;;;;;15.39;100.00;98869.97;4171112;28;20048;-74
2023/08/23 01:54:36;;;;;;;14.50;7.45;;;;;;;15.40;100.00;98876.34;4173416;28;20463;-74
2023/08/23 01:56:37;;;;;;;9.90;7.00;;;;;;;15.36;100.00;98876.31;4173478;28;20497;-74
2023/08/23 01:58:37;;;;;;;10.68;7.40;;;;;;;15.32;100.00;98875.56;4173477;28;20124;-73
2023/08/23 02:00:37;;;;;;;9.90;6.90;;;;;;;15.29;100.00;98869.97;4158146;28;20080;-74
2023/08/23 02:02:38;;;;;;;9.02;7.28;;;;;;;15.26;100.00;98874.34;4172824;28;20045;-74
2023/08/23 02:04:38;;;;;;;12.25;7.55;;;;;;;15.24;100.00;98879.53;4173103;28;20037;-74
2023/08/23 02:06:39;;;;;;;11.25;6.97;;;;;;;15.22;100.00;98875.53;4172682;28;20443;-74
2023/08/23 02:08:39;;;;;;;9.32;6.35;;;;;;;15.21;100.00;98887.88;4173324;28;20048;-74
2023/08/23 02:10:39;;;;;;;9.88;7.05;;;;;;;15.15;100.00;98884.72;4173677;28;20044;-74
2023/08/23 02:12:40;;;;;;;8.70;6.63;;;;;;;15.10;100.00;98887.91;4171986;28;20139;-74
2023/08/23 02:14:41;;;;;;;9.20;6.70;;;;;;;15.09;100.00;98889.91;4172653;28;20409;-74
2023/08/23 02:16:41;;;;;;;9.63;7.13;;;;;;;15.07;100.00;98891.50;4205345;28;20040;-74
2023/08/23 02:18:41;;;;;;;9.88;7.10;;;;;;;15.02;100.00;98889.09;4172541;28;20367;-74
2023/08/23 02:20:42;;;;;;;10.02;6.32;;;;;;;15.00;100.00;98895.06;4172380;28;20061;-74
2023/08/23 02:22:42;;;;;;;10.05;6.80;;;;;;;14.93;100.00;98875.56;4172714;28;20110;-74
2023/08/23 02:24:42;;;;;;;9.95;6.45;;;;;;;14.92;100.00;98884.31;4173117;28;20045;-74
2023/08/23 02:26:43;;;;;;;8.43;7.00;;;;;;;14.91;100.00;98891.88;4173026;28;20052;-74
2023/08/23 02:28:43;;;;;;;10.63;7.07;;;;;;;14.89;100.00;98883.94;4164658;28;20110;-74
2023/08/23 02:30:44;;;;;;;9.88;7.30;;;;;;;14.83;100.00;98881.94;4171615;28;20059;-74
2023/08/23 02:32:44;;;;;;;8.13;6.78;;;;;;;14.82;100.00;98883.13;4171949;28;20512;-73
2023/08/23 02:34:45;;;;;;;7.90;6.80;;;;;;;14.78;100.00;98885.88;4172524;28;20187;-73
2023/08/23 02:36:45;;;;;;;9.60;7.20;;;;;;;14.76;100.00;98882.72;4172805;28;20045;-73
2023/08/23 02:38:45;;;;;;;10.95;6.75;;;;;;;14.71;100.00;98879.50;4172483;28;20136;-73
2023/08/23 02:40:46;;;;;;;12.90;6.90;;;;;;;14.64;100.00;98877.50;4172613;28;20048;-73
2023/08/23 02:42:46;;;;;;;9.05;7.43;;;;;;;14.61;100.00;98878.31;4172049;28;20102;-73
2023/08/23 02:44:46;;;;;;;8.82;6.50;;;;;;;14.54;100.00;98876.31;4172729;28;20041;-73
2023/08/23 02:46:47;;;;;;;9.77;5.90;;;;;;;14.54;100.00;98869.94;4173092;28;20366;-73
2023/08/23 02:48:47;;;;;;;7.45;6.65;;;;;;;14.53;100.00;98879.47;4171520;28;20282;-73
2023/08/23 02:50:48;;;;;;;9.50;6.43;;;;;;;14.53;100.00;98871.13;4171640;28;20044;-73
2023/08/23 02:52:48;;;;;;;6.82;6.13;;;;;;;14.48;100.00;98861.19;4171736;28;20587;-73
2023/08/23 02:54:48;;;;;;;6.45;5.85;;;;;;;14.49;100.00;98867.56;4160368;28;20182;-73
2023/08/23 02:56:49;;;;;;;7.55;5.72;;;;;;;14.47;100.00;98861.56;4171412;28;20485;-73
2023/08/23 02:58:49;;;;;;;8.45;6.93;;;;;;;14.47;100.00;98876.28;4170753;28;20049;-73
2023/08/23 03:00:50;;;;;;;11.70;6.75;;;;;;;14.50;100.00;98871.94;4172506;28;20161;-73
2023/08/23 03:02:50;;;;;;;9.50;7.68;;;;;;;14.54;100.00;98872.72;4170993;28;20049;-73
2023/08/23 03:04:50;;;;;;;9.35;7.20;;;;;;;14.53;100.00;98871.94;4172254;28;20095;-73
2023/08/23 03:06:51;;;;;;;13.75;7.18;;;;;;;14.56;100.00;98873.94;4203757;28;20051;-72
2023/08/23 03:08:52;;;;;;;11.30;6.75;;;;;;;14.58;100.00;98870.75;4172216;28;20041;-73
2023/08/23 03:11:02;;;;;;;9.43;7.40;;;;;;;14.62;100.00;98868.75;4172576;28;20049;-73
2023/08/23 03:13:02;;;;;;;11.32;7.18;;;;;;;14.58;100.00;98868.75;4171072;28;20182;-73
2023/08/23 03:15:03;;;;;;;10.13;7.05;;;;;;;14.51;100.00;98863.19;4172164;28;20103;-73
2023/08/23 03:17:03;;;;;;;7.43;6.72;;;;;;;14.50;100.00;98863.59;4172413;28;20045;-73
2023/08/23 03:19:03;;;;;;;9.55;7.60;;;;;;;14.48;100.00;98872.34;4171011;28;20136;-73
2023/08/23 03:21:04;;;;;;;12.02;6.78;;;;;;;14.50;100.00;98871.94;4171127;28;20045;-73
2023/08/23 03:23:04;;;;;;;7.90;6.85;;;;;;;14.50;100.00;98864.38;4171368;28;20045;-73
2023/08/23 03:25:05;;;;;;;9.57;6.30;;;;;;;14.48;100.00;98874.28;4172338;28;20049;-73
2023/08/23 03:27:05;;;;;;;9.27;6.25;;;;;;;14.49;100.00;98870.34;4161886;28;20097;-73
2023/08/23 03:29:06;;;;;;;7.57;5.80;;;;;;;14.50;100.00;98871.94;4171229;28;20500;-73
2023/08/23 03:31:06;;;;;;;9.00;6.13;;;;;;;14.44;100.00;98874.28;4156090;28;20110;-73
2023/08/23 03:33:07;;;;;;;8.10;6.55;;;;;;;14.39;100.00;98863.50;4170189;28;20041;-73
2023/08/23 03:35:07;;;;;;;9.85;6.85;;;;;;;14.36;100.00;98878.22;4162300;28;20053;-73
2023/08/23 03:37:08;;;;;;;8.43;6.43;;;;;;;14.37;100.00;98867.88;4171024;28;20044;-73
2023/08/23 03:39:08;;;;;;;9.55;6.75;;;;;;;14.30;100.00;98872.22;4170839;28;20065;-73
2023/08/23 03:41:15;;;;;;;9.52;6.53;;;;;;;14.27;100.00;98872.22;4170808;28;20064;-73
2023/08/23 03:43:15;;;;;;;9.38;6.95;;;;;;;14.24;100.00;98871.03;4169595;28;20060;-73
2023/08/23 03:45:17;;;;;;;8.82;5.90;;;;;;;14.24;100.00;98873.81;4202929;28;20043;-73
2023/08/23 03:47:18;;;;;;;7.00;6.10;;;;;;;14.23;100.00;98865.84;4171576;28;20517;-73
2023/08/23 03:49:18;;;;;;;9.55;6.53;;;;;;;14.20;100.00;98867.44;4172389;28;20068;-73
2023/08/23 03:51:18;;;;;;;11.70;7.00;;;;;;;14.19;100.00;98878.97;4172147;28;20107;-73
2023/08/23 03:53:19;;;;;;;9.05;6.85;;;;;;;14.16;100.00;98874.19;4171175;28;20441;-73
2023/08/23 03:55:19;;;;;;;9.70;7.25;;;;;;;14.08;100.00;98876.16;4171201;28;20045;-73
2023/08/23 03:57:19;;;;;;;8.93;7.18;;;;;;;14.03;100.00;98870.97;4171361;28;20049;-73
2023/08/23 03:59:20;;;;;;;12.10;7.30;;;;;;;14.02;100.00;98872.16;4170327;28;20045;-73
2023/08/23 04:01:20;;;;;;;12.15;7.25;;;;;;;13.95;100.00;98874.91;4162530;28;20806;-73
2023/08/23 04:03:21;;;;;;;7.82;6.60;;;;;;;13.87;100.00;98876.06;4174024;28;20070;-73
2023/08/23 04:05:21;;;;;;;9.18;7.40;;;;;;;13.81;100.00;98881.19;4175120;28;20037;-73
2023/08/23 04:07:21;;;;;;;10.82;7.47;;;;;;;13.75;100.00;98878.00;4174839;28;20407;-73
2023/08/23 04:09:22;;;;;;;9.10;7.03;;;;;;;13.71;100.00;98888.28;4174892;28;20520;-73
2023/08/23 04:11:22;;;;;;;11.75;7.60;;;;;;;13.67;100.00;98878.34;4174371;28;20451;-73
2023/08/23 04:13:23;;;;;;;14.18;7.20;;;;;;;13.67;100.00;98879.16;4173872;28;20492;-73
2023/08/23 04:15:23;;;;;;;10.85;8.45;;;;;;;13.70;100.00;98881.13;4175026;28;20055;-73
2023/08/23 04:17:24;;;;;;;10.43;7.15;;;;;;;13.73;100.00;98876.78;4174681;28;20071;-73
2023/08/23 04:19:24;;;;;;;14.80;7.82;;;;;;;13.72;100.00;98869.63;4174639;28;20045;-73
2023/08/23 04:21:24;;;;;;;10.00;6.68;;;;;;;13.74;100.00;98872.84;4175190;28;20037;-73
2023/08/23 04:23:25;;;;;;;11.43;7.63;;;;;;;13.71;100.00;98876.38;4173940;28;20045;-73
2023/08/23 04:25:25;;;;;;;10.13;6.90;;;;;;;13.67;100.00;98878.34;4175105;28;20044;-73
2023/08/23 04:27:26;;;;;;;12.82;7.25;;;;;;;13.61;100.00;98877.91;4175142;28;20041;-73
2023/08/23 04:29:26;;;;;;;14.55;7.57;;;;;;;13.54;100.00;98883.44;4164479;28;20103;-73
2023/08/23 04:31:26;;;;;;;10.23;7.45;;;;;;;13.46;100.00;98870.66;4168346;28;20052;-73
2023/08/23 04:33:27;;;;;;;10.45;7.38;;;;;;;13.43;100.00;98880.59;4172065;28;20045;-73
2023/08/23 04:35:27;;;;;;;8.60;7.63;;;;;;;13.39;100.00;98876.97;4173905;28;20362;-73
2023/08/23 04:37:27;;;;;;;12.65;8.13;;;;;;;13.37;100.00;98873.78;4174307;28;20044;-73
2023/08/23 04:39:28;;;;;;;8.25;7.03;;;;;;;13.36;100.00;98874.97;4170256;28;20051;-73
2023/08/23 04:41:28;;;;;;;14.32;7.82;;;;;;;13.37;100.00;98873.78;4168699;28;20080;-73
2023/08/23 04:43:28;;;;;;;13.80;7.75;;;;;;;13.36;100.00;98872.19;4167574;28;20068;-73
2023/08/23 04:45:29;;;;;;;12.13;7.10;;;;;;;13.37;100.00;98878.56;4172199;28;20405;-73
2023/08/23 04:47:32;;;;;;;12.75;7.57;;;;;;;13.41;100.00;98880.19;4172238;28;20301;-73
2023/08/23 04:49:32;;;;;;;12.85;7.53;;;;;;;13.43;100.00;98875.03;4171640;28;20455;-73
2023/08/23 04:51:33;;;;;;;12.65;7.60;;;;;;;13.43;100.00;98880.59;4173346;28;20050;-73
2023/08/23 04:53:33;;;;;;;8.88;7.70;;;;;;;13.45;100.00;98875.44;4173970;28;20493;-73
2023/08/23 04:55:33;;;;;;;10.75;7.10;;;;;;;13.47;100.00;98875.84;4173657;28;20048;-73
2023/08/23 04:57:34;;;;;;;11.40;7.40;;;;;;;13.45;100.00;98875.44;4173465;28;20052;-73
2023/08/23 04:59:34;;;;;;;10.00;7.05;;;;;;;13.55;100.00;98881.44;4143951;28;20048;-73
2023/08/23 05:01:34;;;;;;;7.13;6.43;;;;;;;13.64;100.00;98881.88;4204925;28;20086;-72
2023/08/23 05:03:35;;;;;;;7.63;6.50;;;;;;;13.66;100.00;98883.13;4173679;28;20492;-73
2023/08/23 05:05:36;;;;;;;17.63;7.97;;;;;;;13.73;100.00;98891.47;4173833;28;20048;-73
2023/08/23 05:07:36;;;;;;;16.05;7.15;;;;;;;13.76;100.00;98887.13;4173875;28;20408;-73
2023/08/23 05:09:36;;;;;;;9.95;7.03;;;;;;;13.82;100.00;98880.03;4171173;28;20041;-73
2023/08/23 05:11:37;;;;;;;10.55;7.43;;;;;;;13.86;100.00;98880.03;4172524;28;20170;-73
2023/08/23 05:13:37;;;;;;;15.55;6.97;;;;;;;13.90;100.00;98878.88;4172815;28;20583;-73
2023/08/23 05:15:37;;;;;;;12.43;7.32;;;;;;;13.98;100.00;98880.50;4172324;28;20055;-73
2023/08/23 05:17:38;;;;;;;9.25;7.25;;;;;;;14.03;100.00;98885.66;4172740;28;20122;-73
2023/08/23 05:19:38;;;;;;;11.77;7.45;;;;;;;14.08;100.00;98887.28;4172124;28;20073;-73
2023/08/23 05:21:39;;;;;;;10.20;6.82;;;;;;;14.16;100.00;98896.47;4167364;28;20048;-73
2023/08/23 05:23:39;;;;;;;10.95;7.75;;;;;;;14.19;100.00;98892.88;4169282;28;20037;-73
2023/08/23 05:25:40;;;;;;;8.98;7.03;;;;;;;14.22;100.00;98897.66;4162935;28;20489;-73
2023/08/23 05:27:40;;;;;;;7.85;6.63;;;;;;;14.25;100.00;98894.09;4165539;28;20383;-73
2023/08/23 05:29:41;;;;;;;8.52;6.60;;;;;;;14.29;100.00;98892.91;4166911;28;20077;-73
2023/08/23 05:31:41;;;;;;;10.85;7.82;;;;;;;14.32;100.00;98889.38;4164458;28;20049;-73
2023/08/23 05:33:42;;;;;;;13.52;7.38;;;;;;;14.34;100.00;98903.69;4166534;28;20045;-73
2023/08/23 05:35:43;;;;;;;9.23;6.85;;;;;;;14.34;100.00;98900.88;4165458;28;20134;-73
2023/08/23 05:37:44;;;;;;;10.55;7.07;;;;;;;14.41;100.00;98902.91;4167535;28;20314;-73
2023/08/23 05:39:44;;;;;;;8.52;7.63;;;;;;;14.47;100.00;98906.13;4164860;28;20390;-73
2023/08/23 05:41:44;;;;;;;9.98;7.68;;;;;;;14.51;100.00;98907.72;4163797;28;20292;-73
2023/08/23 05:43:45;;;;;;;9.15;7.70;;;;;;;14.57;100.00;98905.38;4164445;28;20107;-73
2023/08/23 05:45:45;;;;;;;9.07;7.20;;;;;;;14.65;100.00;98903.41;4169333;28;20033;-73
2023/08/23 05:47:46;;;;;;;8.45;6.45;;;;;;;14.71;100.00;98905.38;4171648;28;20116;-73
2023/08/23 05:49:46;;;;;;;9.63;6.97;;;;;;;14.82;100.00;98910.97;4170247;28;20250;-72
2023/08/23 05:51:47;;;;;;;8.85;6.30;;;;;;;14.83;100.00;98910.59;4169686;28;20061;-73
2023/08/23 05:53:47;;;;;;;9.88;6.43;;;;;;;14.88;100.00;98912.16;4170703;28;20041;-73
2023/08/23 05:55:49;;;;;;;7.35;6.20;;;;;;;14.93;100.00;98913.78;4172661;28;20132;-73
2023/08/23 05:57:49;;;;;;;8.75;6.50;;;;;;;14.98;100.00;98907.81;4172063;28;20044;-72
2023/08/23 05:59:49;;;;;;;8.70;6.45;;;;;;;15.05;100.00;98905.00;4172270;28;20037;-73
2023/08/23 06:01:50;;;;;;;8.35;7.03;;;;;;;15.13;100.00;98906.59;4173177;28;20110;-73
2023/08/23 06:03:50;;;;;;;7.38;6.35;;;;;;;15.16;100.00;98901.03;4172380;28;20071;-73
2023/08/23 06:05:54;;;;;;;10.13;6.65;;;;;;;15.25;100.00;98905.44;4173585;28;20130;-73
2023/08/23 06:07:55;;;;;;;7.75;6.72;;;;;;;15.30;100.00;98910.56;4172901;28;20120;-73
2023/08/23 06:09:56;;;;;;;9.32;6.80;;;;;;;15.37;100.00;98905.78;4172961;28;20160;-73
2023/08/23 06:11:56;;;;;;;7.85;6.32;;;;;;;15.44;100.00;98899.41;4172755;28;20037;-73
2023/08/23 06:13:56;;;;;;;8.27;5.75;;;;;;;15.52;100.00;98908.56;4171870;28;20033;-73
2023/08/23 06:15:57;;;;;;;7.13;5.63;;;;;;;15.57;100.00;98906.19;4172020;28;20041;-73
2023/08/23 06:17:57;;;;;;;9.63;6.00;;;;;;;15.65;100.00;98905.00;4171050;28;20114;-73
2023/08/23 06:19:58;;;;;;;10.05;6.10;;;;;;;15.72;100.00;98905.00;4172337;28;20299;-73
2023/08/23 06:21:58;;;;;;;8.85;5.65;;;;;;;15.81;100.00;98907.38;4172303;28;20040;-73
2023/08/23 06:23:58;;;;;;;9.38;6.75;;;;;;;15.87;100.00;98902.94;4172085;28;20044;-73
2023/08/23 06:25:59;;;;;;;9.02;5.88;;;;;;;15.90;100.00;98898.56;4172631;28;20056;-73
2023/08/23 06:27:59;;;;;;;8.20;6.50;;;;;;;15.96;100.00;98906.09;4172395;28;20048;-73
2023/08/23 06:30:00;;;;;;;9.25;7.78;;;;;;;16.02;100.00;98898.09;4172869;28;20071;-73
2023/08/23 06:32:01;;;;;;;7.95;6.82;;;;;;;16.06;100.00;98900.91;4172070;28;20064;-73
2023/08/23 06:34:01;;;;;;;8.85;7.20;;;;;;;16.11;100.00;98898.47;4171876;28;20060;-73
2023/08/23 06:36:05;;;;;;;10.68;6.75;;;;;;;16.17;100.00;98896.84;4172427;28;20075;-73
2023/08/23 06:38:06;;;;;;;10.80;6.57;;;;;;;16.23;100.00;98903.63;4172991;28;20059;-73
2023/08/23 06:40:08;;;;;;;7.35;6.63;;;;;;;16.31;100.00;98901.59;4172159;28;20025;-73
2023/08/23 06:42:08;;;;;;;;;;;;;;;16.40;100.00;98906.72;4172434;28;20082;-73
2023/08/23 06:44:09;;;;;;;14.18;7.63;;;;;;;16.47;100.00;98904.69;4172228;28;19924;-73
2023/08/23 06:46:09;;;;;;;14.45;7.13;;;;;;;16.55;100.00;98906.25;4172580;28;20033;-73
2023/08/23 06:48:09;;;;;;;13.30;8.95;;;;;;;16.61;100.00;98897.44;4172363;28;20502;-73
2023/08/23 06:50:10;;;;;;;10.82;8.25;;;;;;;16.69;100.00;98901.81;4172338;28;20488;-73
2023/08/23 06:52:10;;;;;;;12.30;8.63;;;;;;;16.75;100.00;98900.97;4172645;28;20388;-73
2023/08/23 06:54:10;;;;;;;9.93;7.55;;;;;;;16.83;100.00;98910.88;4171572;28;20118;-73
2023/08/23 06:56:11;;;;;;;9.50;8.07;;;;;;;16.90;100.00;98904.47;4171311;28;20443;-73
2023/08/23 06:58:12;;;;;;;8.05;7.25;;;;;;;16.93;100.00;98903.63;4170394;28;20064;-73
2023/08/23 07:00:12;;;;;;;11.65;6.55;;;;;;;17.04;100.00;98911.94;4171943;28;20128;-73
2023/08/23 07:02:13;;;;;;;11.98;7.20;;;;;;;17.16;100.00;98916.25;4172209;28;20111;-73
2023/08/23 07:04:13;;;;;;;10.50;7.10;;;;;;;17.35;100.00;98908.09;4171385;28;20362;-73
2023/08/23 07:06:14;;;;;;;7.32;6.18;;;;;;;17.47;100.00;98908.78;4171953;28;20502;-73
2023/08/23 07:08:15;;;;;;;12.50;6.72;;;;;;;17.49;100.00;98901.56;4171970;28;20037;-73
2023/08/23 07:10:15;;;;;;;7.55;6.07;;;;;;;17.58;100.00;98906.69;4171691;28;20041;-73
2023/08/23 07:12:16;;;;;;;8.60;6.47;;;;;;;17.64;100.00;98908.63;4172024;28;20029;-73
2023/08/23 07:14:16;;;;;;;7.90;5.95;;;;;;;17.75;100.00;98905.72;4169980;28;20033;-73
2023/08/23 07:16:16;;;;;;;7.85;6.00;;;;;;;17.88;100.00;98908.81;4169664;28;20037;-73
2023/08/23 07:18:17;;;;;;;7.82;6.15;;;;;;;17.99;100.00;98917.88;4172263;28;20404;-73
2023/08/23 07:20:17;;;;;;;7.65;5.78;;;;;;;18.08;100.00;98922.97;4171916;28;20530;-73
2023/08/23 07:22:17;;;;;;;7.22;5.65;;;;;;;18.19;100.00;98921.63;4171735;28;20037;-73
2023/08/23 07:24:18;;;;;;;9.20;5.30;;;;;;;18.22;100.00;98914.41;4171647;28;20507;-73
2023/08/23 07:26:18;;;;;;;9.63;5.45;;;;;;;18.26;100.00;98912.34;4172362;28;20104;-73
2023/08/23 07:28:18;;;;;;;9.15;5.28;;;;;;;18.31;100.00;98919.50;4172292;28;20152;-73
2023/08/23 07:30:19;;;;;;;7.50;5.43;;;;;;;18.35;100.00;98921.03;4172175;28;20448;-73
2023/08/23 07:32:19;;;;;;;7.45;5.47;;;;;;;18.39;100.00;98918.19;4172642;28;20523;-73
2023/08/23 07:34:19;;;;;;;11.10;5.70;;;;;;;18.46;100.00;98920.91;4167509;28;20033;-73
2023/08/23 07:36:20;;;;;;;11.07;6.03;;;;;;;18.53;100.00;98915.19;4173560;28;20017;-73
2023/08/23 07:38:20;;;;;;;12.80;6.25;;;;;;;18.63;100.00;98927.50;4174943;28;20072;-73
2023/08/23 07:40:20;;;;;;;6.78;5.53;;;;;;;18.76;100.00;98928.50;4168162;28;20087;-73
2023/08/23 07:42:21;;;;;;;8.05;5.78;;;;;;;18.81;100.00;98930.84;4168386;28;20057;-73
2023/08/23 07:44:21;;;;;;;5.90;4.75;;;;;;;18.86;100.00;98937.97;4172124;28;20055;-73
2023/08/23 07:46:24;;;;;;;7.68;6.53;;;;;;;18.90;100.00;98935.94;4174379;28;20047;-73
2023/08/23 07:48:24;;;;;;;;;;;;;;;18.94;100.00;98937.44;4174427;28;20049;-73
2023/08/23 07:50:25;;;;;;;10.77;6.35;;;;;;;19.02;100.00;98932.53;4175183;28;20388;-73
2023/08/23 07:52:25;;;;;;;11.15;6.57;;;;;;;19.12;100.00;98930.81;4175081;28;20741;-73
2023/08/23 07:54:26;;;;;;;10.75;6.57;;;;;;;19.18;100.00;98931.88;4174549;28;20037;-73
2023/08/23 07:56:26;;;;;;;9.73;6.68;;;;;;;19.27;100.00;98929.34;4175263;28;20480;-73
2023/08/23 07:58:26;;;;;;;7.93;5.40;;;;;;;19.39;100.00;98930.75;4175003;28;20128;-73
2023/08/23 08:00:27;;;;;;;15.05;5.45;;;;;;;19.53;100.00;98933.34;4169286;28;20040;-73
2023/08/23 08:02:29;;;;;;;13.25;6.50;;;;;;;19.62;100.00;98933.59;4168897;28;20082;-73
2023/08/23 08:04:31;;;;;;;7.82;6.28;;;;;;;19.65;100.00;98924.31;4172519;28;20037;-73
2023/08/23 08:06:31;;;;;;;8.77;6.40;;;;;;;19.67;100.00;98921.06;4173827;28;20043;-73
2023/08/23 08:08:32;;;;;;;12.90;6.55;;;;;;;19.72;100.00;98917.78;4171526;28;20271;-73
2023/08/23 08:10:32;;;;;;;8.10;6.70;;;;;;;19.81;100.00;98935.66;4168578;28;20037;-73
2023/08/23 08:12:33;;;;;;;11.80;6.47;;;;;;;19.88;100.00;98926.31;4173704;28;20403;-73
2023/08/23 08:14:33;;;;;;;9.48;5.90;;;;;;;19.91;100.00;98929.03;4174882;28;20119;-73
2023/08/23 08:16:33;;;;;;;9.25;6.22;;;;;;;19.97;100.00;98929.34;4175052;28;20490;-73
2023/08/23 08:18:34;;;;;;;6.88;5.95;;;;;;;20.05;100.00;98925.16;4174600;28;20477;-73
2023/08/23 08:20:34;;;;;;;7.45;4.68;;;;;;;20.17;100.00;98927.31;4174838;28;20171;-73
2023/08/23 08:22:35;;;;;;;5.55;3.88;;;;;;;20.24;100.00;98926.38;4172383;28;20147;-73
2023/08/23 08:24:36;;;;;;;7.97;4.50;;;;;;;20.33;100.00;98920.19;4171185;28;20052;-73
2023/08/23 08:26:36;;;;;;;6.72;5.13;;;;;;;20.40;100.00;98922.84;4170944;28;20510;-73
2023/08/23 08:28:38;;;;;;;9.98;6.15;;;;;;;20.44;100.00;98924.41;4169631;28;20044;-73
2023/08/23 08:30:38;;;;;;;8.85;6.05;;;;;;;20.48;100.00;98919.50;4168078;28;20037;-73
2023/08/23 08:32:39;;;;;;;5.38;4.78;;;;;;;20.51;100.00;98920.63;4173116;28;20123;-73
2023/08/23 08:34:39;;;;;;;8.05;5.50;;;;;;;20.57;100.00;98916.09;4172417;28;20053;-73
2023/08/23 08:36:40;;;;;;;8.50;5.32;;;;;;;20.57;100.00;98916.09;4170695;28;20146;-73
2023/08/23 08:38:40;;;;;;;9.95;4.88;;;;;;;20.59;100.00;98913.63;4168736;28;20048;-73
2023/08/23 08:40:41;;;;;;;9.75;4.63;;;;;;;20.62;100.00;98918.41;4168528;28;20064;-73
2023/08/23 08:42:41;;;;;;;7.85;4.63;;;;;;;20.68;100.00;98915.84;4167073;28;20037;-73
2023/08/23 08:44:44;;;;;;;8.65;4.22;;;;;;;20.73;100.00;98916.13;4172906;28;20036;-73
2023/08/23 08:46:44;;;;;;;8.18;5.15;;;;;;;20.83;100.00;98913.50;4174436;28;20388;-73
2023/08/23 08:48:45;;;;;;;6.68;5.22;;;;;;;20.86;100.00;98915.47;4172198;28;20046;-73
2023/08/23 08:50:46;;;;;;;10.45;5.53;;;;;;;20.90;100.00;98913.34;4173695;28;20513;-73
2023/08/23 08:52:51;;;;;;;6.93;5.03;;;;;;;20.90;100.00;98913.34;4173068;28;20033;-73
2023/08/23 08:54:53;;;;;;;6.60;4.53;;;;;;;20.92;100.00;98911.66;4173817;28;20052;-73
2023/08/23 08:56:54;;;;;;;9.33;4.77;;;;;;;20.97;100.00;98905.53;4174541;28;20102;-73
2023/08/23 08:58:55;;;;;;;6.72;4.68;;;;;;;21.03;100.00;98909.41;4174330;28;20116;-73
2023/08/23 09:00:58;;;;;;;11.27;4.68;;;;;;;21.11;100.00;98909.25;4173623;28;20530;-73
2023/08/23 09:02:59;;;;;;;7.47;4.40;;;;;;;21.20;100.00;98915.06;4173331;28;20301;-73
2023/08/23 09:05:01;;;;;;;7.65;5.32;;;;;;;21.30;100.00;98909.19;4174465;28;20087;-74
2023/08/23 09:07:01;;;;;;;6.45;5.00;;;;;;;21.42;100.00;98912.50;4173322;28;20045;-73
2023/08/23 09:09:02;;;;;;;6.00;5.22;;;;;;;21.44;100.00;98910.84;4174122;28;20260;-73
2023/08/23 09:11:02;;;;;;;5.57;4.53;;;;;;;21.47;100.00;98909.97;4174221;28;20068;-73
2023/08/23 09:13:03;;;;;;;7.25;5.05;;;;;;;21.47;100.00;98906.38;4173301;28;20208;-73
2023/08/23 09:15:07;;;;;;;9.60;7.03;;;;;;;21.62;100.00;98907.59;4173520;28;20048;-73
2023/08/23 09:17:10;;;;;;;15.63;6.95;;;;;;;21.69;100.00;98910.22;4173370;28;20158;-73
2023/08/23 09:19:13;;;;;;;9.57;6.72;;;;;;;21.74;100.00;98912.47;4171984;28;20378;-73
2023/08/23 09:21:13;;;;;;;7.78;5.90;;;;;;;21.78;100.00;98916.00;4170660;28;20084;-73